Open Full Screen Window  High Contrast Mode
Wind Gusting 00 knots
06
July 28, 2014 3:25 PM CDT
Weather Information
Wind Direction
  020 °
Wind Speed
  06 kt (7 mph)
Wind Gust
  00 kt (0 mph)
Variable Wind
350°
050°
Altimeter
30.27 in
Visibility
10 SM
Temperature
21° C
70° F
Dewpoint
12° C
54° F
Humidity
57%
1hr Rain Fall
00.00 in.
24hr Rain Fall
00.00 in.
Sky Condition
Scattered @ 6,500 ft
VFR

METAR KMDS 282025Z AUTO 02006KT 350V050 10SM SCT065 21/12 A3027 RMK AO2

*Background is not an actual portrayal of the airport.